Time;durP1;ratioP1;P1;durP2;ratioP2;P2;SDS_P1;SDS_P2;PMS_P1;PMS_P2;Temp;Humidity;BMP_temperature;BMP_pressure;BME280_temperature;BME280_humidity;BME280_pressure;Samples;Min_cycle;Max_cycle;Signal;HPM_P1;HPM_P2
2022/03/18 00:01:07;;;;;;;5.80;4.72;;;;;;;-143.84;63.89;45199.50;5072851;28;20203;-71
2022/03/18 00:03:34;;;;;;;12.40;5.45;;;;;;;-143.84;62.71;45188.06;5072743;28;20202;-71
2022/03/18 00:06:01;;;;;;;10.70;5.80;;;;;;;-143.84;63.27;45237.59;5073113;28;20232;-71
2022/03/18 00:08:28;;;;;;;16.88;5.88;;;;;;;-143.84;63.17;45220.44;5073049;28;20264;-71
2022/03/18 00:10:56;;;;;;;11.50;6.07;;;;;;;-143.84;63.43;45214.72;5072862;28;20252;-71
2022/03/18 00:13:23;;;;;;;8.77;6.10;;;;;;;-143.84;63.39;45207.13;5072863;28;20202;-71
2022/03/18 00:15:50;;;;;;;12.40;6.13;;;;;;;-143.84;63.35;45222.34;5072486;28;20305;-71
2022/03/18 00:18:19;;;;;;;8.68;5.88;;;;;;;-143.84;63.07;45218.53;5072441;28;20278;-71
2022/03/18 00:20:46;;;;;;;15.00;6.53;;;;;;;-143.84;63.50;45235.69;5072339;28;20202;-71
2022/03/18 00:23:14;;;;;;;19.52;6.18;;;;;;;-143.84;63.45;45209.03;5072121;28;20210;-71
2022/03/18 00:25:41;;;;;;;6.10;5.50;;;;;;;-143.84;63.11;45189.97;5072832;28;20591;-71
2022/03/18 00:28:08;;;;;;;12.65;5.30;;;;;;;-143.84;63.47;45209.03;5072409;28;20280;-71
2022/03/18 00:30:35;;;;;;;7.22;6.07;;;;;;;-143.84;63.98;45228.06;5072435;28;20207;-70
2022/03/18 00:33:03;;;;;;;9.07;6.03;;;;;;;-143.84;64.25;45210.94;5070867;28;20676;-70
2022/03/18 00:35:31;;;;;;;11.48;7.15;;;;;;;-143.84;64.00;45201.41;5071957;28;20213;-71
2022/03/18 00:38:02;;;;;;;12.82;6.90;;;;;;;-143.84;64.28;45193.78;5072527;28;20199;-71
2022/03/18 00:40:29;;;;;;;7.72;5.80;;;;;;;-143.84;64.46;45239.50;5072258;28;20198;-71
2022/03/18 00:42:56;;;;;;;18.55;6.03;;;;;;;-143.84;64.31;45210.94;5071992;28;20264;-71
2022/03/18 00:45:24;;;;;;;7.60;6.57;;;;;;;-143.84;64.66;45210.94;5072026;28;20202;-70
2022/03/18 00:53:17;;;;;;;9.85;6.18;;;;;;;-143.84;65.19;45231.88;5038360;28;20199;-71
2022/03/18 00:55:44;;;;;;;7.97;6.50;;;;;;;-143.84;64.86;45209.03;5071915;28;20672;-71
2022/03/18 00:58:11;;;;;;;10.50;6.95;;;;;;;-143.84;65.01;45209.03;5072137;28;20198;-70
2022/03/18 01:00:39;;;;;;;11.50;7.70;;;;;;;-143.84;65.33;45205.22;5071526;28;20260;-70
2022/03/18 01:03:07;;;;;;;9.50;7.05;;;;;;;-143.84;64.96;45249.00;5071924;28;20202;-71
2022/03/18 01:05:34;;;;;;;7.40;6.32;;;;;;;-143.84;65.05;45199.50;5072044;28;20257;-71
2022/03/18 01:08:03;;;;;;;8.10;5.93;;;;;;;-143.84;65.62;45235.69;5071911;28;20581;-71
2022/03/18 01:10:30;;;;;;;9.68;7.40;;;;;;;-143.84;65.84;45210.94;5072100;28;20665;-70
2022/03/18 01:12:57;;;;;;;9.80;5.93;;;;;;;-143.84;65.65;45195.69;5071698;28;20199;-74
2022/03/18 01:15:24;;;;;;;10.13;6.72;;;;;;;-143.84;66.19;45205.22;5071988;28;20203;-74
2022/03/18 01:17:52;;;;;;;12.05;6.55;;;;;;;-143.84;65.85;45207.13;5072290;28;20202;-74
2022/03/18 01:20:19;;;;;;;11.35;6.85;;;;;;;-143.84;65.82;45199.50;5072167;28;20206;-74
2022/03/18 01:22:46;;;;;;;10.70;6.65;;;;;;;-143.84;65.86;45207.13;5072166;28;20621;-73
2022/03/18 01:25:14;;;;;;;8.50;6.28;;;;;;;-143.84;65.67;45186.16;5071946;28;20202;-73
2022/03/18 01:27:42;;;;;;;12.75;6.35;;;;;;;-143.84;65.30;45216.63;5072025;28;20291;-74
2022/03/18 01:30:10;;;;;;;21.73;6.88;;;;;;;-143.84;65.36;45209.03;5072082;28;20202;-74
2022/03/18 01:32:37;;;;;;;9.93;5.93;;;;;;;-143.84;64.86;45224.25;5069471;28;20210;-74
2022/03/18 01:35:05;;;;;;;8.45;6.63;;;;;;;-143.84;64.54;45203.31;5068638;28;20207;-74
2022/03/18 01:37:33;;;;;;;10.57;6.72;;;;;;;-143.84;64.19;45210.94;5070523;28;20205;-74
2022/03/18 01:40:00;;;;;;;12.25;6.78;;;;;;;-143.84;63.92;45254.72;5071490;28;20221;-74
2022/03/18 01:42:29;;;;;;;8.73;7.18;;;;;;;-143.84;63.79;45247.09;5071999;28;20256;-74
2022/03/18 01:44:57;;;;;;;8.98;5.65;;;;;;;-143.84;63.16;45231.88;5071118;28;20566;-74
2022/03/18 01:47:25;;;;;;;9.52;6.20;;;;;;;-143.84;63.46;45231.88;5071171;28;20722;-74
2022/03/18 01:49:53;;;;;;;12.00;6.35;;;;;;;-143.84;62.99;45197.59;5071872;28;20310;-74
2022/03/18 01:52:21;;;;;;;9.90;6.30;;;;;;;-143.84;62.69;45191.88;5071484;28;20206;-74
2022/03/18 01:54:48;;;;;;;9.82;7.85;;;;;;;-143.84;62.73;45203.31;5071617;28;20230;-74
2022/03/18 01:57:18;;;;;;;7.07;6.10;;;;;;;-143.84;62.71;45228.06;5070947;28;20195;-74
2022/03/18 01:59:48;;;;;;;8.80;6.30;;;;;;;-143.84;62.51;45203.31;5071433;28;20280;-74
2022/03/18 02:02:16;;;;;;;9.77;6.30;;;;;;;-143.84;61.92;45201.41;5071420;28;20205;-74
2022/03/18 02:04:43;;;;;;;14.05;7.15;;;;;;;-143.84;62.00;45191.88;5071404;28;20203;-74
2022/03/18 02:07:11;;;;;;;8.80;6.38;;;;;;;-143.84;61.84;45197.59;5071785;28;20191;-74
2022/03/18 02:09:39;;;;;;;9.88;6.07;;;;;;;-143.84;61.77;45195.69;5071004;28;20227;-74
2022/03/18 02:12:09;;;;;;;8.70;6.05;;;;;;;-143.84;61.43;45262.34;5071226;28;20202;-74
2022/03/18 02:14:38;;;;;;;10.82;6.57;;;;;;;-143.84;61.45;45184.25;5071376;28;20268;-74
2022/03/18 02:17:08;;;;;;;10.20;7.13;;;;;;;-143.84;61.38;45216.63;5071438;28;20965;-74
2022/03/18 02:19:36;;;;;;;9.95;5.93;;;;;;;-143.84;61.16;45180.47;5071124;28;20202;-74
2022/03/18 02:22:10;;;;;;;8.40;4.93;;;;;;;-143.84;60.67;45203.31;5071233;28;20213;-74
2022/03/18 02:24:40;;;;;;;18.30;7.38;;;;;;;-143.84;60.45;45199.50;5071357;28;20205;-73
2022/03/18 02:27:08;;;;;;;9.15;6.43;;;;;;;-143.84;59.61;45209.03;5071123;28;20194;-74
2022/03/18 02:29:35;;;;;;;12.25;6.65;;;;;;;-143.84;59.80;45199.50;5071269;28;20230;-74
2022/03/18 02:32:03;;;;;;;8.68;6.75;;;;;;;-143.84;59.44;45262.34;5070855;28;20668;-74
2022/03/18 02:34:30;;;;;;;8.95;6.75;;;;;;;-143.84;58.99;45222.34;5071222;28;20199;-74
2022/03/18 02:36:57;;;;;;;6.75;6.00;;;;;;;-143.84;59.32;45178.56;5071371;28;20202;-74
2022/03/18 02:39:25;;;;;;;12.18;7.10;;;;;;;-143.84;58.93;45197.59;5070657;28;20260;-73
2022/03/18 02:41:54;;;;;;;9.60;6.25;;;;;;;-143.84;58.95;45216.63;5070254;28;20773;-73
2022/03/18 02:44:22;;;;;;;17.20;5.95;;;;;;;-143.84;58.96;45216.63;5070265;28;20606;-73
2022/03/18 02:46:49;;;;;;;13.25;7.30;;;;;;;-143.84;59.13;45226.16;5070699;28;20206;-74
2022/03/18 02:49:16;;;;;;;9.15;6.72;;;;;;;-143.84;58.35;45197.59;5070821;28;20295;-74
2022/03/18 02:51:44;;;;;;;16.38;6.95;;;;;;;-143.84;58.58;45231.88;5070708;28;20191;-73
2022/03/18 02:54:12;;;;;;;12.23;6.95;;;;;;;-143.84;58.08;45203.31;5071079;28;20202;-74
2022/03/18 02:56:40;;;;;;;7.72;6.35;;;;;;;-143.84;58.75;45210.94;5072749;28;20551;-74
2022/03/18 02:59:08;;;;;;;14.07;7.00;;;;;;;-143.84;58.49;45207.13;5074583;28;20203;-73
2022/03/18 03:01:35;;;;;;;12.15;6.78;;;;;;;-143.84;58.24;45203.31;5074597;28;20198;-73
2022/03/18 03:04:02;;;;;;;10.05;7.40;;;;;;;-143.84;58.22;45214.72;5074131;28;20203;-73
2022/03/18 03:09:16;;;;;;;7.68;6.45;;;;;;;-143.84;58.85;45209.03;5074202;28;20229;-73
2022/03/18 03:11:44;;;;;;;12.48;7.40;;;;;;;-143.84;58.62;45237.59;5074983;28;20230;-74
2022/03/18 03:14:13;;;;;;;10.23;6.43;;;;;;;-143.84;57.35;45235.69;5074001;28;20236;-72
2022/03/18 03:16:40;;;;;;;14.65;7.25;;;;;;;-143.84;57.73;45209.03;5074462;28;20202;-74
2022/03/18 03:19:07;;;;;;;8.68;6.68;;;;;;;-143.84;57.54;45188.06;5074775;28;20547;-73
2022/03/18 03:21:35;;;;;;;9.30;7.38;;;;;;;-143.84;57.10;45205.22;5073958;28;20253;-73
2022/03/18 03:24:03;;;;;;;13.68;6.93;;;;;;;-143.84;57.02;45212.84;5073717;28;20190;-73
2022/03/18 03:26:30;;;;;;;10.68;7.53;;;;;;;-143.84;57.05;45188.06;5074083;28;20206;-74
2022/03/18 03:28:57;;;;;;;8.07;6.60;;;;;;;-143.84;57.44;45229.97;5074272;28;20218;-74
2022/03/18 03:31:26;;;;;;;7.10;6.40;;;;;;;-143.84;57.12;45210.94;5074621;28;20210;-74
2022/03/18 03:33:53;;;;;;;10.55;7.20;;;;;;;-143.84;57.80;45216.63;5074677;28;20605;-74
2022/03/18 03:36:20;;;;;;;11.13;7.25;;;;;;;-143.84;57.96;45205.22;5074393;28;20268;-74
2022/03/18 03:38:48;;;;;;;12.35;8.07;;;;;;;-143.84;58.61;45205.22;5074065;28;20221;-74
2022/03/18 03:41:15;;;;;;;20.58;8.38;;;;;;;-143.84;59.08;45220.44;5073463;28;20211;-74
2022/03/18 03:43:43;;;;;;;15.48;8.85;;;;;;;-143.84;59.49;45193.78;5073555;28;20206;-74
2022/03/18 03:46:10;;;;;;;20.85;7.63;;;;;;;-143.84;59.41;45193.78;5073860;28;20199;-74
2022/03/18 03:48:39;;;;;;;13.80;8.30;;;;;;;-143.84;59.72;45209.03;5074235;28;20732;-74
2022/03/18 03:51:06;;;;;;;20.48;8.93;;;;;;;-143.84;59.45;45207.13;5073576;28;20203;-73
2022/03/18 03:53:33;;;;;;;18.73;9.77;;;;;;;-143.84;59.51;45207.13;5073694;28;20202;-74
2022/03/18 03:56:00;;;;;;;11.15;8.68;;;;;;;-143.84;59.45;45205.22;5074070;28;20222;-74
2022/03/18 03:58:27;;;;;;;10.00;7.38;;;;;;;-143.84;58.91;45214.72;5073800;28;20210;-74
2022/03/18 04:00:55;;;;;;;14.85;9.48;;;;;;;-143.84;57.96;45237.59;5073936;28;20198;-74
2022/03/18 04:03:22;;;;;;;12.05;8.95;;;;;;;-143.84;57.80;45224.25;5074400;28;20226;-75
2022/03/18 04:05:50;;;;;;;13.93;8.50;;;;;;;-143.84;57.90;45210.94;5073746;28;20203;-74
2022/03/18 04:08:17;;;;;;;11.77;8.40;;;;;;;-143.84;57.99;45216.63;5073164;28;20256;-74
2022/03/18 04:10:44;;;;;;;10.15;7.50;;;;;;;-143.84;57.89;45218.53;5073631;28;20194;-74
2022/03/18 04:13:11;;;;;;;10.55;7.90;;;;;;;-143.84;58.12;45212.84;5065434;28;20258;-69
2022/03/18 04:15:38;;;;;;;11.02;7.40;;;;;;;-143.84;58.27;45216.63;5032962;28;20204;-73
2022/03/18 04:18:06;;;;;;;13.80;9.07;;;;;;;-143.84;58.46;45169.03;5032393;28;20208;-72
2022/03/18 04:20:33;;;;;;;13.07;8.75;;;;;;;-143.84;58.27;45203.31;5033393;28;20338;-73
2022/03/18 04:23:02;;;;;;;10.50;8.23;;;;;;;-143.84;58.33;45180.47;5033576;28;20235;-72
2022/03/18 04:25:31;;;;;;;10.30;7.80;;;;;;;-143.84;58.37;45212.84;5034060;28;20192;-79
2022/03/18 04:28:00;;;;;;;14.35;8.55;;;;;;;-143.84;58.60;45216.63;5032873;28;20733;-74
2022/03/18 04:30:28;;;;;;;12.60;8.00;;;;;;;-143.84;58.55;45218.53;5033466;28;20999;-74
2022/03/18 04:32:55;;;;;;;15.52;9.73;;;;;;;-143.84;58.33;45235.69;5051026;28;20214;-74
2022/03/18 04:35:23;;;;;;;14.93;8.93;;;;;;;-143.84;58.16;45193.78;5051363;28;20208;-74
2022/03/18 04:37:50;;;;;;;10.38;7.85;;;;;;;-143.84;59.07;45233.78;5054937;28;20205;-72
2022/03/18 04:40:19;;;;;;;12.75;8.13;;;;;;;-143.84;58.73;45220.44;5041513;28;20212;-71
2022/03/18 04:42:46;;;;;;;12.05;8.10;;;;;;;-143.84;58.02;45220.44;5031910;28;20605;-72
2022/03/18 04:45:16;;;;;;;11.35;8.10;;;;;;;-143.84;58.56;45218.53;5032070;28;20281;-73
2022/03/18 04:47:43;;;;;;;13.55;7.75;;;;;;;-143.84;57.99;45180.47;5031627;28;20301;-73
2022/03/18 04:50:11;;;;;;;14.57;8.80;;;;;;;-143.84;57.32;45214.72;5031941;28;20255;-73
2022/03/18 04:52:39;;;;;;;10.50;8.27;;;;;;;-143.84;57.37;45201.41;5032113;28;20207;-72
2022/03/18 04:55:08;;;;;;;10.48;8.60;;;;;;;-143.84;57.12;45216.63;5032087;28;20301;-72
2022/03/18 04:57:36;;;;;;;11.30;7.65;;;;;;;-143.84;56.63;45193.78;5032019;28;20196;-72
2022/03/18 05:00:06;;;;;;;9.10;7.50;;;;;;;-143.84;55.91;45186.16;5032722;28;20242;-73
2022/03/18 05:02:35;;;;;;;9.00;6.38;;;;;;;-143.84;55.03;45220.44;5033052;28;20283;-73
2022/03/18 05:05:03;;;;;;;8.38;7.13;;;;;;;-143.84;55.44;45205.22;5033065;28;20200;-71
2022/03/18 05:07:30;;;;;;;9.75;7.43;;;;;;;-143.84;54.87;45195.69;5051607;28;20207;-74
2022/03/18 05:09:58;;;;;;;12.93;8.40;;;;;;;-143.84;54.59;45203.31;5053177;28;20277;-75
2022/03/18 05:12:26;;;;;;;8.98;7.38;;;;;;;-143.84;51.88;45201.41;5053449;28;20191;-75
2022/03/18 05:14:55;;;;;;;10.10;8.43;;;;;;;-143.84;50.33;45165.22;5053017;28;20207;-75
2022/03/18 05:17:22;;;;;;;9.00;7.47;;;;;;;-143.84;48.60;45178.56;5052749;28;20205;-75
2022/03/18 05:19:50;;;;;;;8.50;7.10;;;;;;;-143.84;47.05;45191.88;5051602;28;20442;-75
2022/03/18 05:22:17;;;;;;;9.43;7.90;;;;;;;-143.84;46.07;45167.13;5052579;28;20632;-75
2022/03/18 05:24:45;;;;;;;9.73;7.33;;;;;;;-143.84;45.02;45191.88;5052404;28;20503;-75
2022/03/18 05:27:12;;;;;;;14.50;7.40;;;;;;;-143.84;44.23;45205.22;5052271;28;20434;-75
2022/03/18 05:29:39;;;;;;;8.80;7.90;;;;;;;-143.84;43.81;45170.94;5052039;28;20506;-76
2022/03/18 05:32:09;;;;;;;9.83;7.57;;;;;;;-143.84;43.88;45207.13;5050345;28;20444;-76
2022/03/18 05:34:36;;;;;;;12.67;8.17;;;;;;;-143.84;43.51;45186.16;5050546;28;20451;-77
2022/03/18 05:37:05;;;;;;;11.63;8.03;;;;;;;-143.84;43.09;45161.41;5050182;28;20797;-76
2022/03/18 05:39:32;;;;;;;9.00;7.67;;;;;;;-143.84;42.36;45191.88;5050598;28;20446;-76
2022/03/18 05:41:59;;;;;;;11.63;7.87;;;;;;;-143.84;42.78;45148.09;5048595;28;20455;-77
2022/03/18 05:44:27;;;;;;;9.97;8.50;;;;;;;-143.84;43.15;45169.03;5048880;28;21020;-77
2022/03/18 05:46:55;;;;;;;14.40;8.57;;;;;;;-143.84;42.70;45151.91;5049795;28;20515;-76
2022/03/18 05:49:24;;;;;;;9.03;7.67;;;;;;;-143.84;42.76;45157.59;5049680;28;20566;-76
2022/03/18 05:51:51;;;;;;;12.60;9.07;;;;;;;-143.84;42.68;45167.13;5049772;28;20932;-77
2022/03/18 05:54:19;;;;;;;8.13;7.33;;;;;;;-143.84;41.89;45186.16;5050086;28;20810;-76
2022/03/18 05:56:54;;;;;;;8.57;7.70;;;;;;;-143.84;41.45;45186.16;5049898;28;20450;-76
2022/03/18 05:59:22;;;;;;;9.53;6.90;;;;;;;-143.84;41.26;45172.84;5050156;28;20453;-76
2022/03/18 06:01:49;;;;;;;10.00;7.17;;;;;;;-143.84;40.90;45165.22;5050272;28;20446;-77
2022/03/18 06:04:17;;;;;;;11.40;8.23;;;;;;;-143.84;39.97;45159.50;5049730;28;20508;-76
2022/03/18 06:06:47;;;;;;;9.30;7.47;;;;;;;-143.84;39.99;45167.13;5049730;28;20433;-76
2022/03/18 06:12:01;;;;;;;12.87;7.63;;;;;;;-143.84;40.49;45142.38;5049467;28;20437;-75
2022/03/18 06:14:29;;;;;;;10.50;7.53;;;;;;;-143.84;40.50;45155.69;5049186;28;20439;-75
2022/03/18 06:16:58;;;;;;;10.90;6.70;;;;;;;-143.84;40.00;45151.91;5049326;28;20878;-75
2022/03/18 06:19:27;;;;;;;8.80;7.10;;;;;;;-143.84;39.28;45144.28;5049266;28;20523;-75
2022/03/18 06:21:56;;;;;;;9.10;7.47;;;;;;;-143.84;39.18;45170.94;5049268;28;20446;-75
2022/03/18 06:24:24;;;;;;;11.60;6.63;;;;;;;-143.84;39.18;45138.56;5049156;28;20446;-75
2022/03/18 06:26:51;;;;;;;25.40;7.73;;;;;;;-143.84;39.27;45148.09;5049134;28;20528;-75
2022/03/18 06:29:19;;;;;;;10.23;7.30;;;;;;;-143.84;39.32;45174.75;5049040;28;20483;-75
2022/03/18 06:31:46;;;;;;;9.03;7.60;;;;;;;-143.84;39.34;45155.69;5048765;28;20448;-75
2022/03/18 06:34:14;;;;;;;11.13;7.10;;;;;;;-143.84;39.20;45161.41;5048201;28;20796;-75
2022/03/18 06:36:41;;;;;;;9.97;6.87;;;;;;;-143.84;39.65;45144.28;5048869;28;20444;-75
2022/03/18 06:39:10;;;;;;;10.23;6.97;;;;;;;-143.84;39.65;45136.66;5048977;28;20450;-75
2022/03/18 06:41:38;;;;;;;10.50;7.80;;;;;;;-143.84;40.07;45146.19;5049195;28;20444;-75
2022/03/18 06:44:08;;;;;;;12.43;8.60;;;;;;;-143.84;39.52;45151.91;5048756;28;20979;-75
2022/03/18 06:46:36;;;;;;;11.80;8.27;;;;;;;-143.84;39.70;45150.00;5049366;28;21165;-75
2022/03/18 06:49:04;;;;;;;12.13;8.10;;;;;;;-143.84;40.01;45159.50;5048576;28;20493;-75
2022/03/18 06:51:31;;;;;;;14.73;7.90;;;;;;;-143.84;39.75;45146.19;5048729;28;20511;-75
2022/03/18 06:53:59;;;;;;;8.47;7.13;;;;;;;-143.84;38.82;45117.63;5048996;28;20445;-75
2022/03/18 06:56:30;;;;;;;17.43;7.70;;;;;;;-143.84;39.25;45153.81;5049066;28;20460;-75
2022/03/18 06:58:57;;;;;;;9.80;7.37;;;;;;;-143.84;39.49;45161.41;5049074;28;20488;-75
2022/03/18 07:01:24;;;;;;;9.60;7.33;;;;;;;-143.84;38.75;45132.84;5049250;28;20445;-75
2022/03/18 07:03:52;;;;;;;21.20;7.80;;;;;;;-143.84;39.49;45165.22;5049467;28;20444;-74
2022/03/18 07:06:19;;;;;;;8.93;7.17;;;;;;;-143.84;39.27;45157.59;5049818;28;20433;-75
2022/03/18 07:08:46;;;;;;;6.53;5.90;;;;;;;-143.84;39.43;45155.69;5049562;28;20444;-74
2022/03/18 07:11:13;;;;;;;14.63;8.17;;;;;;;-143.84;39.44;45155.69;5049032;28;20881;-75
2022/03/18 07:13:43;;;;;;;10.47;7.47;;;;;;;-143.84;39.40;45150.00;5049639;28;20513;-75
2022/03/18 07:18:55;;;;;;;10.70;6.80;;;;;;;-143.84;38.20;45134.75;5049103;28;20433;-75
2022/03/18 07:21:22;;;;;;;19.47;7.30;;;;;;;-143.84;37.53;45130.94;5048987;28;20437;-75
2022/03/18 07:23:50;;;;;;;6.90;6.20;;;;;;;-143.84;37.49;45144.28;5049023;28;20863;-75
2022/03/18 07:26:17;;;;;;;5.83;5.00;;;;;;;-143.84;37.39;45165.22;5048843;28;20545;-75
2022/03/18 07:28:46;;;;;;;8.03;7.20;;;;;;;-143.84;37.62;45144.28;5049081;28;20428;-75
2022/03/18 07:31:13;;;;;;;8.60;6.60;;;;;;;-143.84;38.00;45159.50;5050013;28;20508;-75
2022/03/18 07:33:40;;;;;;;6.93;6.10;;;;;;;-143.84;37.81;45159.50;5048898;28;20448;-75
2022/03/18 07:36:07;;;;;;;7.47;5.63;;;;;;;-143.84;38.24;45161.41;5048623;28;20476;-75
2022/03/18 07:38:34;;;;;;;9.57;6.50;;;;;;;-143.84;38.61;45161.41;5049350;28;20430;-74
2022/03/18 07:41:02;;;;;;;9.30;7.50;;;;;;;-143.84;38.55;45136.66;5048863;28;20511;-75
2022/03/18 07:43:29;;;;;;;16.10;11.30;;;;;;;-143.84;37.88;45174.75;5051676;28;20438;-75
2022/03/18 07:45:58;;;;;;;9.93;6.70;;;;;;;-143.84;37.73;45151.91;5052497;28;20441;-74
2022/03/18 07:48:26;;;;;;;9.23;6.43;;;;;;;-143.84;37.95;45127.13;5052267;28;20551;-75
2022/03/18 07:50:55;;;;;;;8.63;6.70;;;;;;;-143.84;38.01;45119.53;5052020;28;20568;-75
2022/03/18 07:53:22;;;;;;;15.50;8.27;;;;;;;-143.84;38.60;45146.19;5052008;28;20442;-75
2022/03/18 07:55:50;;;;;;;13.70;8.20;;;;;;;-143.84;37.56;45132.84;5052277;28;20522;-75
2022/03/18 07:58:18;;;;;;;8.17;6.73;;;;;;;-143.84;37.23;45121.44;5051847;28;20452;-75
2022/03/18 08:00:46;;;;;;;11.60;6.97;;;;;;;-143.84;37.28;45123.34;5052218;28;20453;-75
2022/03/18 08:03:14;;;;;;;7.33;6.00;;;;;;;-143.84;36.71;45129.03;5052042;28;20445;-75
2022/03/18 08:05:42;;;;;;;13.37;6.30;;;;;;;-143.84;36.49;45142.38;5051628;28;21323;-73
2022/03/18 08:08:09;;;;;;;31.97;7.40;;;;;;;-143.84;36.90;45142.38;5051499;28;20444;-73
2022/03/18 08:10:38;;;;;;;8.10;6.70;;;;;;;-143.84;36.87;45134.75;5051310;28;20559;-73
2022/03/18 08:13:06;;;;;;;7.90;6.27;;;;;;;-143.84;36.32;45104.28;5051424;28;20515;-73
2022/03/18 08:15:34;;;;;;;20.50;7.70;;;;;;;-143.84;36.59;45134.75;5051035;28;20436;-73
2022/03/18 08:18:02;;;;;;;12.33;6.30;;;;;;;-143.84;36.67;45129.03;5051023;28;20861;-72
2022/03/18 08:20:39;;;;;;;13.80;7.30;;;;;;;-143.84;36.32;45132.84;5051429;28;20438;-72
2022/03/18 08:23:06;;;;;;;15.50;7.27;;;;;;;-143.84;36.64;45127.13;5051419;28;20446;-73
2022/03/18 08:25:37;;;;;;;6.10;5.40;;;;;;;-143.84;36.16;45167.13;5050984;28;20442;-73
2022/03/18 08:28:05;;;;;;;66.43;18.13;;;;;;;-143.84;37.01;45121.44;5051040;28;20437;-73
2022/03/18 08:30:32;;;;;;;23.73;7.17;;;;;;;-143.84;36.98;45132.84;5051118;28;20481;-72
2022/03/18 08:33:00;;;;;;;8.43;6.93;;;;;;;-143.84;37.41;45172.84;5051310;28;20500;-73
2022/03/18 08:35:27;;;;;;;6.80;6.20;;;;;;;-143.84;37.06;45138.56;5051929;28;20919;-73
2022/03/18 08:37:59;;;;;;;9.53;6.33;;;;;;;-143.84;36.84;45151.91;5050936;28;20449;-73
2022/03/18 08:40:27;;;;;;;8.40;7.50;;;;;;;-143.84;37.24;45129.03;5050773;28;20455;-73
2022/03/18 08:42:56;;;;;;;8.20;6.80;;;;;;;-143.84;36.44;45146.19;5050615;28;20951;-73
2022/03/18 08:45:23;;;;;;;14.40;7.37;;;;;;;-143.84;36.73;45144.28;5050834;28;20507;-73
2022/03/18 08:47:50;;;;;;;10.43;6.33;;;;;;;-143.84;36.80;45155.69;5050543;28;20554;-73
2022/03/18 08:50:18;;;;;;;7.67;6.50;;;;;;;-143.84;36.71;45117.63;5050605;28;20535;-73
2022/03/18 08:52:46;;;;;;;7.87;6.97;;;;;;;-143.84;36.50;45134.75;5050588;28;20442;-73
2022/03/18 08:55:15;;;;;;;8.60;6.37;;;;;;;-143.84;36.52;45138.56;5049426;28;20440;-73
2022/03/18 08:57:42;;;;;;;10.20;5.97;;;;;;;-143.84;36.15;45092.88;5050300;28;20939;-73
2022/03/18 09:00:13;;;;;;;8.00;7.20;;;;;;;-143.84;36.10;45125.22;5050278;28;20457;-73
2022/03/18 09:02:40;;;;;;;7.93;6.43;;;;;;;-143.84;35.26;45148.09;5050208;28;20485;-73
2022/03/18 09:05:09;;;;;;;13.13;6.70;;;;;;;-143.84;35.75;45176.66;5050318;28;20495;-73
2022/03/18 09:07:38;;;;;;;7.70;6.23;;;;;;;-143.84;34.61;45138.56;5049948;28;20465;-73
2022/03/18 09:10:06;;;;;;;13.27;7.13;;;;;;;-143.84;35.08;45129.03;5050225;28;20484;-73
2022/03/18 09:12:35;;;;;;;8.87;6.67;;;;;;;-143.84;34.68;45125.22;5050155;28;20446;-73
2022/03/18 09:15:03;;;;;;;10.10;7.13;;;;;;;-143.84;35.07;45132.84;5049951;28;20445;-73
2022/03/18 09:17:31;;;;;;;12.07;8.57;;;;;;;-143.84;35.55;45136.66;5049990;28;20438;-73
2022/03/18 09:19:58;;;;;;;10.93;7.73;;;;;;;-143.84;35.91;45134.75;5049895;28;20449;-73
2022/03/18 09:22:25;;;;;;;9.70;7.20;;;;;;;-143.84;35.43;45148.09;5049837;28;20445;-73
2022/03/18 09:24:52;;;;;;;8.63;6.77;;;;;;;-143.84;35.62;45142.38;5050087;28;20442;-73
2022/03/18 09:27:19;;;;;;;10.83;6.57;;;;;;;-143.84;35.44;45127.13;5049634;28;20469;-73
2022/03/18 09:29:48;;;;;;;11.10;7.50;;;;;;;-143.84;35.87;45130.94;5049714;28;20500;-73
2022/03/18 09:32:15;;;;;;;7.37;6.37;;;;;;;-143.84;35.78;45127.13;5049584;28;20429;-73
2022/03/18 09:34:43;;;;;;;7.77;6.97;;;;;;;-143.84;36.36;45127.13;5049766;28;20477;-73
2022/03/18 09:37:10;;;;;;;9.90;7.03;;;;;;;-143.84;36.42;45140.47;5049834;28;21121;-74
2022/03/18 09:39:37;;;;;;;11.27;6.73;;;;;;;-143.84;36.45;45129.03;5049595;28;20503;-74
2022/03/18 09:42:05;;;;;;;8.87;7.10;;;;;;;-143.84;36.34;45134.75;5049535;28;21037;-74
2022/03/18 09:44:34;;;;;;;12.83;7.07;;;;;;;-143.84;35.53;45125.22;5049521;28;20446;-73
2022/03/18 09:47:03;;;;;;;9.40;6.70;;;;;;;-143.84;35.36;45117.63;5049416;28;20446;-73
2022/03/18 09:49:30;;;;;;;9.70;7.10;;;;;;;-143.84;35.68;45121.44;5049175;28;20543;-73
2022/03/18 09:51:58;;;;;;;8.50;6.40;;;;;;;-143.84;35.67;45125.22;5049151;28;20539;-73
2022/03/18 09:54:25;;;;;;;8.23;6.80;;;;;;;-143.84;35.11;45140.47;5049280;28;20449;-73
2022/03/18 09:56:53;;;;;;;7.93;6.93;;;;;;;-143.84;35.74;45115.72;5048862;28;20449;-73
2022/03/18 09:59:23;;;;;;;7.63;6.67;;;;;;;-143.84;34.47;45132.84;5048825;28;21178;-73
2022/03/18 10:01:50;;;;;;;10.20;6.20;;;;;;;-143.84;34.88;45121.44;5049135;28;20828;-73
2022/03/18 10:04:19;;;;;;;10.43;6.63;;;;;;;-143.84;34.93;45140.47;5048752;28;20453;-73
2022/03/18 10:06:46;;;;;;;10.33;6.93;;;;;;;-143.84;34.59;45130.94;5048525;28;20445;-73
2022/03/18 10:09:15;;;;;;;13.77;6.97;;;;;;;-143.84;34.47;45115.72;5049185;28;20438;-73
2022/03/18 10:11:44;;;;;;;12.93;7.27;;;;;;;-143.84;34.96;45136.66;5048883;28;21015;-73
2022/03/18 10:14:15;;;;;;;7.03;6.30;;;;;;;-143.84;34.50;45111.91;5048934;28;20520;-73
2022/03/18 10:16:44;;;;;;;25.90;6.43;;;;;;;-143.84;34.56;45115.72;5048840;28;20446;-73
2022/03/18 10:19:13;;;;;;;9.70;7.40;;;;;;;-143.84;34.74;45142.38;5048870;28;21046;-73
2022/03/18 10:21:55;;;;;;;10.37;7.27;;;;;;;-143.84;35.49;45138.56;5049022;28;20446;-73
2022/03/18 10:24:27;;;;;;;8.57;6.80;;;;;;;-143.84;34.74;45127.13;5048792;28;21185;-72
2022/03/18 10:27:11;;;;;;;9.57;5.83;;;;;;;-143.84;35.28;45132.84;5048849;28;20446;-73
2022/03/18 10:29:42;;;;;;;9.17;6.70;;;;;;;-143.84;34.95;45146.19;5048885;28;20448;-73
2022/03/18 10:32:09;;;;;;;8.50;7.23;;;;;;;-143.84;35.48;45148.09;5048635;28;20485;-73
2022/03/18 10:37:25;;;;;;;6.70;6.00;;;;;;;-143.84;33.94;45132.84;5048794;28;20437;-73
2022/03/18 10:40:00;;;;;;;8.23;5.93;;;;;;;-143.84;34.03;45121.44;5048528;28;21189;-73
2022/03/18 10:42:28;;;;;;;7.90;6.13;;;;;;;-143.84;34.14;45136.66;5048469;28;20510;-73
2022/03/18 10:44:57;;;;;;;10.43;6.33;;;;;;;-143.84;34.20;45125.22;5048889;28;20531;-73
2022/03/18 10:47:27;;;;;;;10.60;6.50;;;;;;;-143.84;34.40;45121.44;5047926;28;20457;-73
2022/03/18 10:50:13;;;;;;;7.83;6.90;;;;;;;-143.84;33.74;45129.03;5049193;28;20511;-74
2022/03/18 10:53:01;;;;;;;11.33;7.50;;;;;;;-143.84;34.31;45113.81;5048691;28;21028;-74
2022/03/18 10:55:30;;;;;;;9.43;7.23;;;;;;;-143.84;34.62;45098.56;5048525;28;20860;-74
2022/03/18 10:58:01;;;;;;;8.67;7.80;;;;;;;-143.84;34.99;45111.91;5048493;28;20446;-74
2022/03/18 11:00:30;;;;;;;9.00;7.40;;;;;;;-143.84;35.02;45132.84;5048344;28;20477;-74
2022/03/18 11:02:58;;;;;;;7.60;6.73;;;;;;;-143.84;34.57;45146.19;5048626;28;20936;-74
2022/03/18 11:05:27;;;;;;;8.00;7.07;;;;;;;-143.84;33.98;45113.81;5048478;28;20452;-74
2022/03/18 11:07:56;;;;;;;11.23;7.70;;;;;;;-143.84;35.15;45140.47;5048592;28;20442;-74
2022/03/18 11:13:10;;;;;;;13.73;6.77;;;;;;;-143.84;34.28;45134.75;5048504;28;20934;-74
2022/03/18 11:15:39;;;;;;;12.57;7.50;;;;;;;-143.84;34.06;45111.91;5048550;28;20535;-74
2022/03/18 11:18:07;;;;;;;9.20;7.27;;;;;;;-143.84;33.68;45127.13;5050770;28;20437;-74
2022/03/18 11:20:42;;;;;;;11.33;6.50;;;;;;;-143.84;33.81;45125.22;5052294;28;20437;-74
2022/03/18 11:23:15;;;;;;;9.80;6.63;;;;;;;-143.84;33.77;45125.22;5052221;28;20459;-74
2022/03/18 11:25:44;;;;;;;10.17;8.17;;;;;;;-143.84;35.20;45148.09;5052227;28;20469;-74
2022/03/18 11:28:16;;;;;;;10.10;6.70;;;;;;;-143.84;33.94;45136.66;5052276;28;20539;-74
2022/03/18 11:30:44;;;;;;;7.83;6.17;;;;;;;-143.84;34.46;45155.69;5052070;28;20776;-74
2022/03/18 11:33:24;;;;;;;9.87;7.03;;;;;;;-143.84;34.09;45127.13;5051953;28;20434;-74
2022/03/18 11:36:21;;;;;;;13.43;6.77;;;;;;;-143.84;34.82;45119.53;5051716;28;20503;-74